Time;durP1;ratioP1;P1;durP2;ratioP2;P2;SDS_P1;SDS_P2;PMS_P1;PMS_P2;Temp;Humidity;BMP_temperature;BMP_pressure;BME280_temperature;BME280_humidity;BME280_pressure;Samples;Min_cycle;Max_cycle;Signal;HPM_P1;HPM_P2
2022/08/26 00:01:01;;;;;;;13.43;11.60;;;;;;;22.42;65.97;100113.59;5100691;28;20506;-70
2022/08/26 00:03:28;;;;;;;13.50;12.20;;;;;;;22.36;65.92;100117.22;5087557;28;20432;-71
2022/08/26 00:05:55;;;;;;;13.80;11.67;;;;;;;22.37;65.59;100119.69;5080734;28;21002;-70
2022/08/26 00:08:22;;;;;;;14.23;12.83;;;;;;;22.18;66.15;100121.47;5080604;28;20440;-71
2022/08/26 00:10:49;;;;;;;20.60;12.97;;;;;;;22.14;66.34;100122.16;5084783;28;20485;-71
2022/08/26 00:13:17;;;;;;;13.30;11.87;;;;;;;22.09;66.74;100133.69;5101034;28;20451;-69
2022/08/26 00:15:45;;;;;;;13.20;11.30;;;;;;;22.08;66.47;100123.88;5101287;28;20527;-70
2022/08/26 00:18:12;;;;;;;13.67;11.87;;;;;;;22.08;66.63;100132.06;5103687;28;20479;-70
2022/08/26 00:20:39;;;;;;;13.20;11.80;;;;;;;22.04;66.90;100125.34;5105218;28;20832;-70
2022/08/26 00:23:06;;;;;;;13.37;11.90;;;;;;;22.09;66.90;100135.59;5104915;28;20481;-69
2022/08/26 00:25:33;;;;;;;16.00;11.53;;;;;;;22.10;66.42;100132.66;5105351;28;20462;-69
2022/08/26 00:28:00;;;;;;;13.03;11.77;;;;;;;21.96;67.17;100126.47;5086577;28;20471;-69
2022/08/26 00:30:28;;;;;;;13.27;11.97;;;;;;;22.03;66.98;100128.28;5084807;28;20456;-70
2022/08/26 00:32:57;;;;;;;15.10;12.90;;;;;;;22.18;66.39;100121.47;5097857;28;21118;-70
2022/08/26 00:35:25;;;;;;;12.67;11.47;;;;;;;22.27;65.98;100118.50;5104720;28;20427;-69
2022/08/26 00:37:52;;;;;;;12.87;11.57;;;;;;;22.16;66.12;100120.88;5104878;28;20543;-68
2022/08/26 00:40:23;;;;;;;13.93;12.53;;;;;;;22.14;66.28;100120.25;5104882;28;20428;-71
2022/08/26 00:42:50;;;;;;;14.83;12.33;;;;;;;22.22;65.87;100116.44;5105091;28;20554;-70
2022/08/26 00:45:17;;;;;;;12.77;11.40;;;;;;;22.24;65.88;100108.91;5104888;28;20435;-71
2022/08/26 00:47:47;;;;;;;13.07;11.23;;;;;;;22.05;66.45;100115.28;5090502;28;20462;-71
2022/08/26 00:50:19;;;;;;;13.70;11.90;;;;;;;21.81;67.40;100113.13;5083571;28;20489;-71
2022/08/26 00:52:46;;;;;;;14.83;13.33;;;;;;;21.87;67.33;100114.13;5083559;28;20917;-71
2022/08/26 00:55:16;;;;;;;13.37;12.13;;;;;;;21.81;67.56;100115.84;5082835;28;20499;-71
2022/08/26 00:57:43;;;;;;;13.67;12.27;;;;;;;21.75;67.31;100115.88;5083764;28;20510;-70
2022/08/26 01:00:13;;;;;;;14.83;11.80;;;;;;;21.73;67.55;100116.09;5083017;28;20496;-69
2022/08/26 01:02:40;;;;;;;13.60;12.00;;;;;;;21.81;67.60;100115.84;5084080;28;20432;-69
2022/08/26 01:05:08;;;;;;;13.40;12.00;;;;;;;21.91;66.78;100115.41;5083892;28;20459;-69
2022/08/26 01:07:37;;;;;;;13.50;12.07;;;;;;;21.83;67.50;100115.63;5063023;28;20472;-70
2022/08/26 01:10:08;;;;;;;14.37;12.80;;;;;;;21.83;67.61;100114.81;5063294;28;20467;-71
2022/08/26 01:12:38;;;;;;;14.37;12.93;;;;;;;21.97;66.83;100110.94;5063212;28;20449;-71
2022/08/26 01:15:06;;;;;;;15.67;12.93;;;;;;;21.97;66.70;100116.41;5064309;28;20490;-70
2022/08/26 01:17:33;;;;;;;13.20;11.80;;;;;;;21.88;67.36;100115.00;5082310;28;20717;-70
2022/08/26 01:20:04;;;;;;;14.03;12.60;;;;;;;21.87;66.85;100114.13;5083244;28;20432;-70
2022/08/26 01:22:37;;;;;;;13.70;12.30;;;;;;;21.81;67.47;100112.31;5101805;28;20463;-70
2022/08/26 01:25:05;;;;;;;15.83;12.63;;;;;;;21.94;67.19;100109.53;5104053;28;20423;-71
2022/08/26 01:27:32;;;;;;;14.63;13.07;;;;;;;21.85;67.17;100115.44;5082354;28;20506;-72
2022/08/26 01:29:59;;;;;;;15.90;13.43;;;;;;;21.44;67.95;100110.16;5083325;28;20424;-70
2022/08/26 01:32:27;;;;;;;15.37;13.77;;;;;;;21.33;68.56;100118.13;5102550;28;20479;-72
2022/08/26 01:34:53;;;;;;;16.87;13.53;;;;;;;21.23;69.06;100115.84;5103364;28;20463;-72
2022/08/26 01:37:24;;;;;;;15.73;13.33;;;;;;;21.11;70.06;100112.13;5085148;28;20571;-72
2022/08/26 01:39:54;;;;;;;14.73;13.33;;;;;;;21.01;70.62;100110.69;5083320;28;20448;-71
2022/08/26 01:42:22;;;;;;;14.73;13.03;;;;;;;21.04;70.80;100115.72;5083075;28;20505;-71
2022/08/26 01:44:51;;;;;;;16.40;13.67;;;;;;;20.95;70.95;100113.44;5083428;28;20448;-69
2022/08/26 01:47:20;;;;;;;15.83;14.13;;;;;;;20.89;70.96;100117.84;5081860;28;20472;-71
2022/08/26 01:49:48;;;;;;;16.80;13.93;;;;;;;20.79;71.51;100112.81;5083079;28;20428;-72
2022/08/26 01:52:21;;;;;;;15.03;13.40;;;;;;;20.81;71.73;100118.06;5082206;28;20483;-70
2022/08/26 01:54:47;;;;;;;16.27;14.73;;;;;;;20.81;71.54;100116.16;5082156;28;20436;-71
2022/08/26 01:57:16;;;;;;;16.07;14.47;;;;;;;20.69;71.94;100107.84;5082275;28;20496;-71
2022/08/26 01:59:43;;;;;;;14.37;12.97;;;;;;;20.71;71.99;100113.06;5082377;28;20953;-70
2022/08/26 02:02:10;;;;;;;16.23;14.70;;;;;;;20.75;71.41;100108.03;5082658;28;20480;-70
2022/08/26 02:04:40;;;;;;;15.30;13.23;;;;;;;20.80;71.52;100113.69;5086823;28;20463;-70
2022/08/26 02:07:09;;;;;;;15.53;13.87;;;;;;;20.67;72.09;100117.22;5101553;28;20482;-70
2022/08/26 02:09:37;;;;;;;16.90;14.00;;;;;;;20.62;72.49;100115.16;5102805;28;20435;-71
2022/08/26 02:12:04;;;;;;;15.37;12.97;;;;;;;20.66;72.52;100121.84;5102542;28;20481;-70
2022/08/26 02:14:37;;;;;;;16.23;13.80;;;;;;;20.67;72.15;100104.47;5102681;28;20455;-70
2022/08/26 02:17:06;;;;;;;18.53;13.80;;;;;;;20.66;72.28;100107.44;5101507;28;20471;-71
2022/08/26 02:19:35;;;;;;;15.67;14.10;;;;;;;20.72;72.27;100109.28;5096421;28;20472;-71
2022/08/26 02:22:04;;;;;;;16.07;13.77;;;;;;;20.72;71.98;100105.75;5081833;28;20479;-71
2022/08/26 02:24:46;;;;;;;13.93;12.67;;;;;;;20.68;72.28;100099.91;5082510;28;20459;-71
2022/08/26 02:27:13;;;;;;;16.13;14.60;;;;;;;20.65;72.75;100103.84;5081473;28;20860;-71
2022/08/26 02:29:44;;;;;;;16.90;14.00;;;;;;;20.63;72.61;100111.38;5082203;28;20521;-71
2022/08/26 02:32:11;;;;;;;15.77;14.00;;;;;;;20.65;72.35;100108.47;5081867;28;20527;-70
2022/08/26 02:34:38;;;;;;;15.13;13.77;;;;;;;20.67;72.45;100111.78;5090123;28;20443;-71
2022/08/26 02:37:06;;;;;;;17.67;13.90;;;;;;;20.67;72.72;100106.34;5101394;28;20516;-72
2022/08/26 02:39:35;;;;;;;15.60;13.90;;;;;;;20.63;72.87;100108.66;5101321;28;20579;-70
2022/08/26 02:42:04;;;;;;;15.40;13.60;;;;;;;20.67;72.92;100103.66;5101763;28;20984;-71
2022/08/26 02:44:31;;;;;;;15.73;14.33;;;;;;;20.71;72.99;100113.06;5102212;28;20487;-70
2022/08/26 02:46:59;;;;;;;16.50;14.83;;;;;;;20.73;72.89;100102.81;5101176;28;20463;-71
2022/08/26 02:49:27;;;;;;;16.30;14.60;;;;;;;20.73;73.40;100101.97;5101897;28;20423;-71
2022/08/26 02:51:53;;;;;;;14.63;13.13;;;;;;;20.74;73.01;100101.75;5100911;28;20467;-70
2022/08/26 02:54:21;;;;;;;16.83;15.13;;;;;;;20.75;72.95;100099.91;5101623;28;20431;-71
2022/08/26 02:56:48;;;;;;;16.20;14.50;;;;;;;20.75;73.04;100103.44;5100720;28;20521;-71
2022/08/26 02:59:14;;;;;;;16.10;14.50;;;;;;;20.74;72.95;100093.59;5088635;28;20480;-71
2022/08/26 03:01:41;;;;;;;15.73;14.27;;;;;;;20.74;73.30;100103.66;5095767;28;20475;-71
2022/08/26 03:04:11;;;;;;;13.87;12.50;;;;;;;20.72;72.75;100094.88;5102166;28;20458;-72
2022/08/26 03:06:38;;;;;;;15.20;13.70;;;;;;;20.74;72.24;100093.59;5100960;28;20474;-71
2022/08/26 03:09:06;;;;;;;15.67;14.13;;;;;;;20.65;72.40;100087.56;5101903;28;20645;-72
2022/08/26 03:11:33;;;;;;;14.50;13.20;;;;;;;20.65;72.38;100090.28;5100899;28;20494;-72
2022/08/26 03:14:00;;;;;;;17.20;15.40;;;;;;;20.59;72.27;100084.81;5101564;28;20435;-71
2022/08/26 03:16:26;;;;;;;16.43;14.93;;;;;;;20.59;72.24;100084.81;5100377;28;20673;-70
2022/08/26 03:18:53;;;;;;;16.40;14.70;;;;;;;20.57;72.23;100086.91;5101109;28;20610;-71
2022/08/26 03:21:21;;;;;;;14.67;13.27;;;;;;;20.53;72.56;100089.22;5101438;28;20474;-72
2022/08/26 03:23:48;;;;;;;15.23;13.63;;;;;;;20.45;72.78;100086.69;5101370;28;20467;-70
2022/08/26 03:26:16;;;;;;;16.70;13.37;;;;;;;20.45;72.63;100086.69;5101033;28;20520;-71
2022/08/26 03:31:23;;;;;;;18.10;14.80;;;;;;;20.45;72.71;100071.25;5081144;28;20499;-71
2022/08/26 03:33:50;;;;;;;15.60;14.00;;;;;;;20.46;73.03;100080.22;5081116;28;20420;-71
2022/08/26 03:36:17;;;;;;;15.10;13.43;;;;;;;20.43;73.24;100078.78;5080434;28;20641;-70
2022/08/26 03:38:45;;;;;;;16.23;14.73;;;;;;;20.41;73.27;100075.41;5080727;28;20495;-71
2022/08/26 03:41:11;;;;;;;15.87;13.83;;;;;;;20.37;73.34;100078.78;5080560;28;20579;-70
2022/08/26 03:43:38;;;;;;;15.97;14.20;;;;;;;20.37;73.27;100076.06;5081268;28;20436;-70
2022/08/26 03:46:05;;;;;;;15.40;13.67;;;;;;;20.35;73.47;100070.03;5098980;28;20522;-71
2022/08/26 03:48:32;;;;;;;16.40;14.90;;;;;;;20.35;73.17;100070.84;5100699;28;20455;-71
2022/08/26 03:50:59;;;;;;;19.90;14.60;;;;;;;20.29;73.44;100079.81;5100404;28;20499;-71
2022/08/26 03:53:26;;;;;;;16.43;14.83;;;;;;;20.26;73.37;100072.94;5100771;28;20477;-71
2022/08/26 03:55:55;;;;;;;17.73;14.03;;;;;;;20.27;73.51;100079.19;5099668;28;20505;-71
2022/08/26 03:58:23;;;;;;;16.80;14.93;;;;;;;20.22;73.58;100081.69;5101167;28;20514;-70
2022/08/26 04:00:50;;;;;;;16.33;14.80;;;;;;;20.21;73.51;100083.59;5082363;28;20860;-71
2022/08/26 04:03:56;;;;;;;15.57;13.93;;;;;;;20.17;73.70;100076.06;5092301;28;20511;-64
2022/08/26 04:06:04;;;;;;;15.43;13.93;;;;;;;20.24;73.40;100076.88;5080132;28;20842;-64
2022/08/26 04:08:30;;;;;;;16.17;14.47;;;;;;;20.41;73.04;100080.03;5099216;28;20471;-64
2022/08/26 04:11:00;;;;;;;19.77;14.07;;;;;;;20.61;71.82;100075.41;5095574;28;20503;-63
2022/08/26 04:13:26;;;;;;;16.80;15.20;;;;;;;20.83;71.21;100067.91;5082285;28;20476;-64
2022/08/26 04:15:53;;;;;;;17.30;15.50;;;;;;;20.72;70.98;100070.41;5097902;28;20491;-63
2022/08/26 04:18:20;;;;;;;22.63;20.40;;;;;;;20.67;71.81;100066.44;5085504;28;20930;-64
2022/08/26 04:20:48;;;;;;;21.17;19.13;;;;;;;20.76;71.42;100068.94;5081741;28;20475;-63
2022/08/26 04:23:15;;;;;;;32.53;29.13;;;;;;;20.73;71.90;100067.50;5098359;28;20477;-64
2022/08/26 04:25:42;;;;;;;30.87;27.97;;;;;;;20.85;71.57;100067.69;5085477;28;21019;-64
2022/08/26 04:28:12;;;;;;;35.70;32.00;;;;;;;20.86;71.74;100069.34;5090764;28;20712;-64
2022/08/26 04:30:39;;;;;;;34.60;30.57;;;;;;;20.96;71.04;100068.91;5088957;28;20554;-64
2022/08/26 04:33:06;;;;;;;22.60;20.50;;;;;;;20.98;70.57;100069.53;5088914;28;20463;-71
2022/08/26 04:35:35;;;;;;;23.30;20.27;;;;;;;20.95;70.42;100072.66;5094473;28;20473;-71
2022/08/26 04:38:02;;;;;;;21.80;16.13;;;;;;;20.72;70.47;100075.84;5082126;28;20630;-72
2022/08/26 04:40:29;;;;;;;27.53;21.60;;;;;;;20.73;70.93;100066.63;5081680;28;20470;-72
2022/08/26 04:42:56;;;;;;;19.07;16.00;;;;;;;20.62;71.57;100070.84;5080815;28;20453;-70
2022/08/26 04:45:24;;;;;;;19.33;15.87;;;;;;;20.54;71.77;100065.63;5092190;28;20850;-72
2022/08/26 04:47:55;;;;;;;20.03;15.67;;;;;;;20.42;72.07;100071.66;5081196;28;20452;-71
2022/08/26 04:50:23;;;;;;;17.83;13.97;;;;;;;20.55;71.95;100068.09;5094194;28;20446;-71
2022/08/26 04:52:50;;;;;;;22.77;14.70;;;;;;;20.65;71.16;100071.25;5099866;28;20459;-73
2022/08/26 04:55:17;;;;;;;15.63;14.03;;;;;;;20.80;70.78;100072.94;5097433;28;20482;-71
2022/08/26 04:57:44;;;;;;;18.73;16.23;;;;;;;21.05;69.59;100071.16;5084218;28;20463;-72
2022/08/26 05:00:12;;;;;;;23.17;15.50;;;;;;;21.21;68.92;100074.47;5080820;28;20479;-72
2022/08/26 05:02:40;;;;;;;16.87;13.50;;;;;;;21.71;67.39;100080.13;5100426;28;20434;-72
2022/08/26 05:05:08;;;;;;;17.20;14.57;;;;;;;21.91;66.34;100081.91;5102157;28;20500;-72
2022/08/26 05:07:35;;;;;;;22.27;15.03;;;;;;;21.48;67.33;100074.41;5083705;28;20935;-72
2022/08/26 05:10:03;;;;;;;15.87;14.17;;;;;;;21.37;68.22;100074.00;5100071;28;20886;-73
2022/08/26 05:12:30;;;;;;;19.53;14.57;;;;;;;21.48;67.96;100080.66;5103246;28;20532;-73
2022/08/26 05:14:58;;;;;;;16.00;14.30;;;;;;;21.51;67.84;100079.38;5104405;28;20500;-72
2022/08/26 05:17:26;;;;;;;16.57;14.13;;;;;;;21.62;67.49;100086.88;5095298;28;20569;-71
2022/08/26 05:19:54;;;;;;;22.03;12.43;;;;;;;21.80;66.74;100081.56;5087412;28;20479;-72
2022/08/26 05:22:21;;;;;;;16.10;14.23;;;;;;;22.25;65.33;100085.22;5085958;28;20502;-72
2022/08/26 05:24:48;;;;;;;15.60;13.30;;;;;;;22.72;63.63;100083.78;5088422;28;20448;-72
2022/08/26 05:27:14;;;;;;;15.10;13.60;;;;;;;23.43;61.11;100083.44;5083694;28;20543;-71
2022/08/26 05:29:41;;;;;;;17.97;13.03;;;;;;;24.30;57.84;100079.47;5084569;28;20447;-71
2022/08/26 05:32:08;;;;;;;14.07;12.67;;;;;;;25.03;55.20;100075.44;5094537;28;20545;-71
2022/08/26 05:34:36;;;;;;;14.90;11.73;;;;;;;25.72;53.18;100083.72;5086962;28;20435;-71
2022/08/26 05:37:05;;;;;;;14.10;11.83;;;;;;;25.91;52.14;100080.78;5091039;28;20503;-70
2022/08/26 05:39:33;;;;;;;13.10;11.80;;;;;;;26.15;51.24;100086.16;5095094;28;20504;-71
2022/08/26 05:41:59;;;;;;;15.10;13.07;;;;;;;25.42;52.94;100083.13;5074389;28;21127;-71
2022/08/26 05:44:26;;;;;;;16.03;13.13;;;;;;;24.97;54.84;100092.84;5070971;28;20513;-71
2022/08/26 05:46:53;;;;;;;14.43;12.93;;;;;;;24.93;54.79;100092.47;5071389;28;20526;-72
2022/08/26 05:49:19;;;;;;;16.53;13.87;;;;;;;24.96;55.67;100085.69;5070997;28;20445;-71
2022/08/26 05:51:46;;;;;;;18.37;14.47;;;;;;;25.28;55.40;100097.09;5078003;28;20519;-72
2022/08/26 05:54:16;;;;;;;20.20;15.30;;;;;;;25.28;54.64;100090.78;5072684;28;20487;-71
2022/08/26 05:56:42;;;;;;;17.13;14.00;;;;;;;25.23;54.66;100088.75;5071216;28;20833;-72
2022/08/26 05:59:13;;;;;;;18.97;13.37;;;;;;;25.10;55.35;100095.31;5071697;28;20488;-70
2022/08/26 06:01:39;;;;;;;16.50;14.90;;;;;;;25.35;54.74;100102.44;5071349;28;20495;-71
2022/08/26 06:04:07;;;;;;;19.20;13.73;;;;;;;26.21;52.10;100096.13;5069051;28;20471;-70
2022/08/26 06:06:36;;;;;;;14.57;12.63;;;;;;;27.06;50.00;100088.66;5071832;28;20465;-71
2022/08/26 06:09:05;;;;;;;21.43;13.80;;;;;;;27.25;48.35;100089.19;5063131;28;20492;-71
2022/08/26 06:11:34;;;;;;;18.10;13.30;;;;;;;28.33;46.03;100104.09;5062802;28;20532;-70
2022/08/26 06:14:04;;;;;;;15.70;13.93;;;;;;;28.84;44.66;100090.75;5063088;28;20479;-71
2022/08/26 06:16:32;;;;;;;14.60;13.10;;;;;;;28.11;45.93;100096.78;5072068;28;20483;-72
2022/08/26 06:18:58;;;;;;;14.53;13.13;;;;;;;28.28;45.61;100101.31;5065036;28;20468;-72
2022/08/26 06:21:28;;;;;;;15.30;13.80;;;;;;;28.31;46.20;100092.53;5062724;28;20593;-71
2022/08/26 06:26:47;;;;;;;15.43;13.83;;;;;;;29.03;44.51;100090.34;5075781;28;20470;-72
2022/08/26 06:29:14;;;;;;;20.77;14.80;;;;;;;29.90;42.38;100089.84;5081263;28;20468;-73
2022/08/26 06:31:40;;;;;;;17.23;14.20;;;;;;;30.71;40.50;100090.97;5067156;28;21095;-70
2022/08/26 06:34:07;;;;;;;16.40;13.20;;;;;;;31.10;39.66;100090.34;5061220;28;20442;-72
2022/08/26 06:36:34;;;;;;;13.97;12.27;;;;;;;31.12;39.27;100091.72;5060846;28;20483;-72
2022/08/26 06:39:03;;;;;;;28.07;14.00;;;;;;;30.59;40.71;100096.81;5060358;28;21098;-72
2022/08/26 06:41:32;;;;;;;14.37;13.07;;;;;;;29.92;42.06;100099.50;5060390;28;20478;-73
2022/08/26 06:44:00;;;;;;;14.80;12.77;;;;;;;30.33;42.23;100102.28;5061255;28;20437;-72
2022/08/26 06:46:28;;;;;;;15.73;12.30;;;;;;;30.50;41.73;100099.28;5077441;28;21044;-70
2022/08/26 06:48:56;;;;;;;16.63;13.27;;;;;;;29.95;42.24;100100.91;5075546;28;20463;-70
2022/08/26 06:51:25;;;;;;;16.70;12.80;;;;;;;28.69;45.53;100094.25;5063587;28;20501;-70
2022/08/26 06:53:53;;;;;;;15.80;13.37;;;;;;;29.00;44.57;100102.69;5068259;28;20446;-67
2022/08/26 06:56:22;;;;;;;17.10;12.50;;;;;;;28.22;46.61;100094.13;5078412;28;21002;-72
2022/08/26 06:58:49;;;;;;;13.33;11.97;;;;;;;29.25;44.61;100087.41;5069495;28;20482;-70
2022/08/26 07:01:19;;;;;;;14.90;13.07;;;;;;;29.94;43.18;100105.56;5068269;28;20477;-72
2022/08/26 07:03:46;;;;;;;16.73;12.47;;;;;;;29.56;43.98;100101.31;5061732;28;20431;-70
2022/08/26 07:06:13;;;;;;;15.83;12.30;;;;;;;31.83;39.88;100098.03;5070261;28;20470;-70
2022/08/26 07:08:39;;;;;;;14.37;12.57;;;;;;;33.19;36.95;100098.25;5081737;28;21123;-72
2022/08/26 07:11:08;;;;;;;13.53;12.13;;;;;;;33.89;35.84;100104.28;5072926;28;20613;-68
2022/08/26 07:13:35;;;;;;;13.43;11.43;;;;;;;33.69;35.76;100102.63;5061704;28;20465;-71
2022/08/26 07:16:03;;;;;;;15.27;11.90;;;;;;;33.25;36.93;100107.34;5068086;28;20478;-72
2022/08/26 07:18:31;;;;;;;14.87;11.37;;;;;;;33.73;35.72;100115.59;5065421;28;20475;-71
2022/08/26 07:20:58;;;;;;;13.97;11.07;;;;;;;33.57;35.97;100119.66;5060864;28;20471;-72
2022/08/26 07:23:24;;;;;;;14.43;11.37;;;;;;;33.98;35.57;100124.66;5060264;28;20611;-72
2022/08/26 07:25:51;;;;;;;12.00;10.43;;;;;;;34.20;34.99;100129.63;5060450;28;20528;-72
2022/08/26 07:28:18;;;;;;;15.40;9.70;;;;;;;34.67;34.50;100126.91;5061347;28;20468;-70
2022/08/26 07:30:46;;;;;;;13.40;11.20;;;;;;;34.89;34.46;100134.56;5060402;28;20479;-72
2022/08/26 07:33:12;;;;;;;12.90;10.90;;;;;;;33.94;34.85;100130.00;5061274;28;20470;-70
2022/08/26 07:35:40;;;;;;;16.00;10.43;;;;;;;33.52;35.09;100136.34;5060645;28;20579;-72
2022/08/26 07:38:07;;;;;;;9.33;8.20;;;;;;;34.23;33.63;100134.56;5060659;28;20464;-71
2022/08/26 07:40:34;;;;;;;11.33;10.00;;;;;;;33.91;33.74;100135.31;5060861;28;20503;-72
2022/08/26 07:43:00;;;;;;;16.43;10.40;;;;;;;33.01;35.64;100138.59;5061020;28;20437;-72
2022/08/26 07:45:27;;;;;;;18.10;10.10;;;;;;;34.05;34.05;100136.19;5074281;28;21036;-71
2022/08/26 07:47:54;;;;;;;12.37;10.10;;;;;;;33.00;35.84;100138.88;5080763;28;20459;-70
2022/08/26 07:50:21;;;;;;;11.07;9.97;;;;;;;34.62;32.33;100143.66;5075760;28;20473;-72
2022/08/26 07:52:50;;;;;;;15.53;10.00;;;;;;;34.54;32.68;100144.34;5060038;28;21044;-70
2022/08/26 07:55:17;;;;;;;11.23;9.13;;;;;;;35.75;30.62;100147.88;5059688;28;20498;-70
2022/08/26 07:57:45;;;;;;;12.00;8.80;;;;;;;36.43;29.25;100149.94;5060675;28;20460;-71
2022/08/26 08:00:14;;;;;;;12.30;10.77;;;;;;;37.08;27.97;100157.72;5068331;28;20475;-71
2022/08/26 08:02:43;;;;;;;14.43;9.90;;;;;;;36.19;29.38;100153.81;5081255;28;20519;-69
2022/08/26 08:05:10;;;;;;;10.53;9.53;;;;;;;36.00;29.59;100159.56;5080783;28;20436;-71
2022/08/26 08:07:37;;;;;;;14.30;9.80;;;;;;;33.47;33.44;100162.22;5080547;28;20455;-71
2022/08/26 08:10:07;;;;;;;16.87;11.63;;;;;;;30.91;38.49;100164.63;5080244;28;21019;-71
2022/08/26 08:12:34;;;;;;;15.20;10.80;;;;;;;31.45;38.08;100157.63;5063861;28;20471;-71
2022/08/26 08:15:01;;;;;;;11.73;10.20;;;;;;;30.98;38.65;100168.78;5060908;28;20503;-70
2022/08/26 08:17:27;;;;;;;13.57;11.57;;;;;;;30.12;40.13;100158.50;5060902;28;20483;-71
2022/08/26 08:19:54;;;;;;;26.73;13.83;;;;;;;30.09;40.41;100157.16;5080580;28;20490;-68
2022/08/26 08:22:22;;;;;;;19.73;11.03;;;;;;;29.96;40.65;100168.69;5079223;28;20544;-68
2022/08/26 08:24:49;;;;;;;14.03;11.43;;;;;;;29.47;41.84;100169.84;5078230;28;20432;-68
2022/08/26 08:27:17;;;;;;;12.97;10.43;;;;;;;30.46;40.70;100164.38;5059621;28;20486;-67
2022/08/26 08:29:45;;;;;;;12.37;11.10;;;;;;;30.49;40.30;100166.59;5060140;28;20455;-67
2022/08/26 08:32:12;;;;;;;18.33;12.70;;;;;;;30.08;41.29;100163.75;5060090;28;20513;-67
2022/08/26 08:34:39;;;;;;;19.10;12.07;;;;;;;29.45;42.56;100166.56;5060307;28;20547;-68
2022/08/26 08:37:06;;;;;;;13.43;11.10;;;;;;;29.79;41.04;100164.25;5059192;28;20482;-68
2022/08/26 08:39:33;;;;;;;17.40;11.40;;;;;;;31.24;38.25;100159.63;5070493;28;20461;-68
2022/08/26 08:42:32;;;;;;;14.10;12.07;;;;;;;32.40;35.78;100158.53;5067090;28;20493;-68
2022/08/26 08:45:05;;;;;;;13.70;12.30;;;;;;;32.16;37.34;100161.19;5077654;28;20479;-68
2022/08/26 08:47:34;;;;;;;15.40;11.93;;;;;;;33.22;34.83;100169.69;5082707;28;20454;-68
2022/08/26 08:50:07;;;;;;;11.10;9.97;;;;;;;34.80;33.30;100167.78;5071926;28;20472;-68
2022/08/26 08:52:35;;;;;;;11.70;10.40;;;;;;;35.63;31.14;100162.28;5083252;28;20455;-68
2022/08/26 08:55:03;;;;;;;17.10;10.10;;;;;;;36.35;30.06;100166.28;5083647;28;20453;-68
2022/08/26 08:57:45;;;;;;;11.37;10.17;;;;;;;36.88;28.73;100170.25;5074543;28;20488;-69
2022/08/26 09:00:16;;;;;;;11.77;10.67;;;;;;;33.58;33.43;100168.44;5063404;28;20503;-69
2022/08/26 09:02:47;;;;;;;14.70;11.03;;;;;;;34.11;32.41;100168.31;5063921;28;20464;-69
2022/08/26 09:05:18;;;;;;;15.20;11.70;;;;;;;33.96;33.03;100166.56;5063783;28;20442;-68
2022/08/26 09:07:48;;;;;;;12.40;11.20;;;;;;;33.58;33.43;100162.91;5063092;28;20456;-69
2022/08/26 09:10:32;;;;;;;17.47;12.33;;;;;;;32.62;35.80;100167.22;5066829;28;20447;-69
2022/08/26 09:13:00;;;;;;;18.10;11.73;;;;;;;33.22;35.69;100172.44;5083873;28;20458;-69
2022/08/26 09:15:33;;;;;;;18.77;12.17;;;;;;;34.50;32.45;100172.69;5083393;28;20475;-69
2022/08/26 09:18:03;;;;;;;13.20;11.80;;;;;;;36.03;30.70;100169.25;5082900;28;20504;-69
2022/08/26 09:20:36;;;;;;;16.17;12.77;;;;;;;34.11;33.11;100173.84;5082892;28;20818;-68
2022/08/26 09:23:03;;;;;;;15.23;13.57;;;;;;;33.93;34.01;100169.94;5083167;28;20997;-68
2022/08/26 09:25:30;;;;;;;14.27;12.97;;;;;;;35.10;31.92;100170.28;5082822;28;20459;-69
2022/08/26 09:27:56;;;;;;;14.10;12.60;;;;;;;35.56;31.29;100167.44;5083297;28;20954;-69
2022/08/26 09:30:25;;;;;;;18.83;13.17;;;;;;;33.25;35.14;100173.81;5082846;28;20836;-69
2022/08/26 09:33:00;;;;;;;14.27;12.73;;;;;;;33.43;34.92;100161.13;5083428;28;20979;-68
2022/08/26 09:35:29;;;;;;;16.80;12.57;;;;;;;33.06;35.82;100167.38;5082862;28;20470;-69
2022/08/26 09:37:57;;;;;;;15.50;12.90;;;;;;;33.15;36.27;100160.91;5082378;28;20464;-69
2022/08/26 09:40:29;;;;;;;20.90;12.10;;;;;;;33.35;35.31;100168.16;5082164;28;21003;-69
2022/08/26 09:43:12;;;;;;;13.47;10.77;;;;;;;33.43;34.93;100157.53;5083389;28;20476;-69
2022/08/26 09:45:41;;;;;;;14.00;10.90;;;;;;;32.76;36.27;100155.44;5082921;28;20521;-68
2022/08/26 09:48:09;;;;;;;18.40;12.30;;;;;;;32.22;36.86;100154.47;5082482;28;21004;-69
2022/08/26 09:50:37;;;;;;;18.10;12.63;;;;;;;31.89;37.94;100154.97;5081610;28;20470;-67
2022/08/26 09:53:07;;;;;;;13.83;10.93;;;;;;;33.14;36.80;100148.19;5082664;28;20454;-68
2022/08/26 09:55:34;;;;;;;14.83;10.10;;;;;;;34.43;34.10;100152.84;5081614;28;20471;-67
2022/08/26 09:58:02;;;;;;;16.37;13.37;;;;;;;33.62;35.05;100158.41;5082934;28;20520;-68
2022/08/26 10:00:32;;;;;;;14.23;12.47;;;;;;;32.65;37.33;100147.28;5080004;28;20719;-69
2022/08/26 10:03:01;;;;;;;15.30;11.60;;;;;;;33.54;36.42;100153.50;5079316;28;20479;-69
2022/08/26 10:05:37;;;;;;;19.10;12.57;;;;;;;33.28;35.96;100153.84;5060493;28;20463;-69
2022/08/26 10:08:17;;;;;;;13.23;11.33;;;;;;;33.28;35.36;100145.53;5060449;28;20523;-70
2022/08/26 10:10:45;;;;;;;13.93;11.77;;;;;;;33.64;35.64;100142.28;5076358;28;20470;-71
2022/08/26 10:13:16;;;;;;;18.33;12.13;;;;;;;33.69;35.32;100136.72;5080658;28;20470;-69
2022/08/26 10:15:46;;;;;;;15.10;12.40;;;;;;;33.30;35.53;100134.97;5080032;28;20538;-69
2022/08/26 10:18:16;;;;;;;17.60;12.57;;;;;;;32.82;36.41;100126.59;5080300;28;20478;-68
2022/08/26 10:20:53;;;;;;;15.30;11.33;;;;;;;33.57;35.91;100137.09;5079595;28;20489;-69
2022/08/26 10:23:23;;;;;;;15.03;11.47;;;;;;;34.25;34.20;100135.09;5079653;28;20452;-69
2022/08/26 10:25:54;;;;;;;16.10;13.57;;;;;;;32.59;36.64;100128.19;5061737;28;20524;-69
2022/08/26 10:28:25;;;;;;;13.07;11.40;;;;;;;33.11;36.61;100125.75;5060278;28;20440;-69
2022/08/26 10:30:56;;;;;;;15.80;12.40;;;;;;;33.47;35.52;100130.88;5059824;28;20510;-68
2022/08/26 10:33:23;;;;;;;19.97;13.40;;;;;;;33.85;34.47;100125.41;5060024;28;20446;-69
2022/08/26 10:35:54;;;;;;;13.80;12.40;;;;;;;34.09;34.87;100115.03;5059293;28;20475;-69
2022/08/26 10:38:26;;;;;;;16.00;12.20;;;;;;;34.26;34.38;100122.03;5059413;28;20526;-69
2022/08/26 10:40:58;;;;;;;13.83;12.40;;;;;;;36.30;30.88;100118.25;5074276;28;20521;-70
2022/08/26 10:43:27;;;;;;;16.27;11.00;;;;;;;36.75;30.62;100119.06;5060249;28;20487;-70
2022/08/26 10:45:59;;;;;;;14.90;11.53;;;;;;;37.15;29.56;100107.06;5059610;28;20494;-70
2022/08/26 10:48:30;;;;;;;14.90;13.30;;;;;;;35.66;31.96;100109.94;5059623;28;20492;-70
2022/08/26 10:50:58;;;;;;;13.17;10.60;;;;;;;36.44;31.35;100112.59;5059242;28;20476;-70
2022/08/26 10:53:31;;;;;;;17.50;11.47;;;;;;;36.73;30.38;100107.38;5059594;28;20490;-70
2022/08/26 10:56:03;;;;;;;12.20;10.87;;;;;;;37.03;30.06;100110.50;5058927;28;20495;-70
2022/08/26 10:58:47;;;;;;;12.17;10.70;;;;;;;38.20;28.43;100108.09;5059761;28;20461;-69
2022/08/26 11:04:07;;;;;;;11.87;10.60;;;;;;;37.51;29.42;100114.41;5067325;28;20490;-68
2022/08/26 11:06:36;;;;;;;13.67;11.13;;;;;;;37.82;28.69;100111.50;5079077;28;20481;-68
2022/08/26 11:09:04;;;;;;;14.03;12.20;;;;;;;37.48;29.06;100112.25;5079282;28;21007;-69
2022/08/26 11:11:49;;;;;;;14.40;11.60;;;;;;;37.56;29.05;100114.25;5079897;28;20477;-68
2022/08/26 11:14:32;;;;;;;13.53;11.43;;;;;;;38.29;27.63;100110.88;5081775;28;21286;-68
2022/08/26 11:17:00;;;;;;;13.10;11.73;;;;;;;38.04;28.29;100104.16;5079838;28;20506;-70
2022/08/26 11:19:58;;;;;;;15.07;12.17;;;;;;;36.84;29.56;100101.53;5064402;28;20565;-70
2022/08/26 11:22:28;;;;;;;14.23;12.67;;;;;;;34.87;32.51;100117.38;5080247;28;20476;-70
2022/08/26 11:25:13;;;;;;;17.23;13.23;;;;;;;32.70;36.60;100106.81;5081024;28;20486;-70